^^
Saratoga-Weather Station Historical Data
Daily Summary for June 29, 2020 Units:  English    Metric   Both
Daily Weekly Monthly Yearly Custom
  High: Low: Average:
Temperature: 61.2 °F 50.9 °F 55.8 °F
Dew Point: 57 °F 50 °F 53.4 °F
Humidity: 97% 83% 93%
Wind Speed: 10.1mph 0mph 2.4mph
Wind Gust: 13mph - -
Wind- - West
Pressure: 30.1 in 29.9 in -
Precipitation: 0.13 in    
Historical Graphs
 
 
Tabular Data for June 29, 2020
Time Temperature Dew Point Pressure Wind Wind Speed Wind Gust Humidity Rainfall Rate (Hourly) solar
00:02 50.9 °F 50 °F 29.9 in Calm     97% 0.01 in 0 W/m2
00:07 50.9 °F 50 °F 29.9 in Calm     97% 0.01 in 0 W/m2
00:12 51.1 °F 50.2 °F 29.9 in Calm     97% 0.01 in 0 W/m2
00:17 51.1 °F 50.2 °F 29.9 in Calm     97% 0.01 in 0 W/m2
00:22 51.1 °F 50.2 °F 29.9 in Calm     97% 0.01 in 0 W/m2
00:27 51.1 °F 50.2 °F 29.9 in Calm     97% 0 in 0 W/m2
00:32 51.1 °F 50.2 °F 29.9 in Calm     97% 0.01 in 0 W/m2
00:37 51.1 °F 50.2 °F 29.9 in Calm     97% 0.01 in 0 W/m2
00:42 51.1 °F 50.2 °F 29.9 in Calm     97% 0.01 in 0 W/m2
00:47 51.3 °F 50.4 °F 29.9 in Calm     97% 0.02 in 0 W/m2
00:52 51.3 °F 50.4 °F 29.9 in Calm     97% 0.02 in 0 W/m2
00:57 51.3 °F 50.4 °F 29.9 in Calm   2 mph 97% 0.02 in 0 W/m2
01:02 51.3 °F 50.4 °F 29.9 in Calm     97% 0.02 in 0 W/m2
01:07 51.3 °F 50.4 °F 29.9 in Calm   2 mph 97% 0.02 in 0 W/m2
01:12 51.3 °F 50.4 °F 29.9 in Calm   1 mph 97% 0.03 in 0 W/m2
01:17 51.4 °F 50.5 °F 29.9 in Calm     97% 0.04 in 0 W/m2
01:22 51.4 °F 50.5 °F 29.9 in West 0.9 mph 1 mph 97% 0.04 in 0 W/m2
01:27 51.4 °F 50.5 °F 29.9 in WNW 0.9 mph 4 mph 97% 0.04 in 0 W/m2
01:32 51.4 °F 50.5 °F 29.9 in West 0.9 mph 3 mph 97% 0.03 in 0 W/m2
01:37 51.6 °F 50.7 °F 29.9 in West 0.9 mph 2 mph 97% 0.04 in 0 W/m2
01:42 51.6 °F 50.7 °F 29.9 in West 2 mph 7 mph 97% 0.04 in 0 W/m2
01:47 51.8 °F 50.9 °F 29.9 in WSW 4 mph 4 mph 97% 0.03 in 0 W/m2
01:52 52 °F 51.1 °F 29.9 in WSW 0.9 mph 4 mph 97% 0.03 in 0 W/m2
01:57 52 °F 51.1 °F 29.9 in WSW 4 mph 6 mph 97% 0.02 in 0 W/m2
02:02 52.2 °F 51.3 °F 29.9 in WNW 2 mph 4 mph 97% 0.02 in 0 W/m2
02:07 52.2 °F 51.3 °F 29.9 in West 6 mph 6 mph 97% 0.02 in 0 W/m2
02:12 52.2 °F 51.3 °F 29.9 in SW 2.9 mph 8 mph 97% 0.02 in 0 W/m2
02:17 52.3 °F 51.4 °F 29.9 in WNW 2.9 mph 12 mph 97% 0.01 in 0 W/m2
02:22 52.3 °F 51.4 °F 29.9 in West 6 mph 9 mph 97% 0.01 in 0 W/m2
02:27 52.5 °F 51.6 °F 29.9 in WNW 6.9 mph 12 mph 97% 0.01 in 0 W/m2
02:32 52.5 °F 51.6 °F 29.9 in SW 4.9 mph 8 mph 97% 0.01 in 0 W/m2
02:37 52.5 °F 51.6 °F 29.9 in West 6 mph 10 mph 97% 0 in 0 W/m2
02:42 52.7 °F 51.8 °F 29.9 in WNW 2 mph 12 mph 97% 0 in 0 W/m2
02:47 52.9 °F 52 °F 29.9 in WNW 4 mph 10 mph 97% 0 in 0 W/m2
02:52 52.9 °F 52 °F 29.9 in WNW 4.9 mph 12 mph 97% 0 in 0 W/m2
02:57 52.9 °F 52 °F 29.9 in West 2.9 mph 8 mph 97% 0 in 0 W/m2
03:03 53.1 °F 52.2 °F 29.9 in WNW 10.1 mph 12 mph 97% 0 in 0 W/m2
03:08 53.1 °F 52.2 °F 29.9 in SW 4.9 mph 9 mph 97% 0 in 0 W/m2
03:13 53.2 °F 52.3 °F 29.9 in WSW 4.9 mph 8 mph 97% 0 in 0 W/m2
03:18 53.2 °F 52.3 °F 29.9 in WNW 4 mph 8 mph 97% 0 in 0 W/m2
03:23 53.2 °F 52.3 °F 29.9 in West 6 mph 10 mph 97% 0 in 0 W/m2
03:28 53.4 °F 52.3 °F 29.9 in WSW 6.9 mph 7 mph 96% 0 in 0 W/m2
03:33 53.4 °F 52.3 °F 29.9 in West 6.9 mph 10 mph 96% 0 in 0 W/m2
03:38 53.6 °F 52.5 °F 29.9 in West 6 mph 11 mph 96% 0 in 0 W/m2
03:43 53.8 °F 52.9 °F 29.9 in West 6 mph 9 mph 97% 0 in 0 W/m2
03:48 53.8 °F 52.7 °F 29.9 in West 6 mph 11 mph 96% 0 in 0 W/m2
03:53 53.8 °F 52.7 °F 29.9 in WNW 2.9 mph 7 mph 96% 0 in 0 W/m2
03:58 54 °F 52.9 °F 29.9 in West 4 mph 10 mph 96% 0 in 0 W/m2
04:03 54 °F 52.9 °F 29.9 in WNW 2.9 mph 8 mph 96% 0 in 0 W/m2
04:08 54 °F 52.9 °F 29.9 in WNW 2.9 mph 9 mph 96% 0.01 in 0 W/m2
04:13 54 °F 52.9 °F 29.9 in WSW 4.9 mph 8 mph 96% 0.01 in 0 W/m2
04:18 54 °F 52.9 °F 29.9 in WNW 4 mph 10 mph 96% 0.01 in 0 W/m2
04:23 54 °F 52.9 °F 29.9 in West 6.9 mph 8 mph 96% 0.01 in 0 W/m2
04:28 53.8 °F 52.7 °F 29.9 in West 2 mph 9 mph 96% 0.01 in 0 W/m2
04:33 53.8 °F 52.7 °F 29.9 in WSW 4 mph 8 mph 96% 0.01 in 0 W/m2
04:38 53.6 °F 52.5 °F 29.9 in West 4 mph 10 mph 96% 0.01 in 0 W/m2
04:43 53.6 °F 52.5 °F 29.9 in WNW 4.9 mph 8 mph 96% 0.01 in 0 W/m2
04:48 53.4 °F 52.3 °F 29.9 in WSW 4.9 mph 8 mph 96% 0.01 in 0 W/m2
04:53 53.4 °F 52.3 °F 29.9 in West 4 mph 8 mph 96% 0.01 in 0 W/m2
04:58 53.4 °F 52.3 °F 29.9 in SW 2 mph 8 mph 96% 0.01 in 0 W/m2
05:03 53.4 °F 52.3 °F 29.9 in West 4 mph 7 mph 96% 0.01 in 0 W/m2
05:08 53.4 °F 52.3 °F 29.9 in WSW 2 mph 10 mph 96% 0 in 0 W/m2
05:13 53.4 °F 52.3 °F 29.9 in WNW 2.9 mph 8 mph 96% 0 in 0 W/m2
05:18 53.4 °F 52.3 °F 29.9 in West 6 mph 10 mph 96% 0 in 0 W/m2
05:23 53.2 °F 52.2 °F 29.9 in West 6.9 mph 8 mph 96% 0 in 0 W/m2
05:29 53.1 °F 51.6 °F 30 in West 4 mph 9 mph 95% 0 in 0 W/m2
05:34 52.9 °F 51.4 °F 30 in West 4 mph 7 mph 95% 0.01 in 0 W/m2
05:39 52.9 °F 51.4 °F 30 in WNW 4.9 mph 9 mph 95% 0.01 in 0 W/m2
05:44 52.5 °F 51.1 °F 30 in WSW 8.9 mph 11 mph 95% 0.01 in 0 W/m2
05:49 52.5 °F 51.1 °F 30 in WNW 4.9 mph 10 mph 95% 0.01 in 0 W/m2
05:54 52.5 °F 51.1 °F 30 in WSW 4.9 mph 8 mph 95% 0.02 in 0 W/m2
05:59 52.3 °F 50.9 °F 30 in WNW 8.1 mph 12 mph 95% 0.02 in 0 W/m2
06:04 52.3 °F 50.9 °F 30 in West 6.9 mph 11 mph 95% 0.02 in 0 W/m2
06:09 52.2 °F 50.7 °F 30 in West 6.9 mph 11 mph 95% 0.02 in 0 W/m2
06:14 52.2 °F 50.7 °F 30 in West 8.1 mph 13 mph 95% 0.02 in 0 W/m2
06:19 52.2 °F 50.7 °F 30 in WSW 8.9 mph 9 mph 95% 0.02 in 0 W/m2
06:24 52 °F 50.5 °F 30 in WNW 8.1 mph 11 mph 95% 0.02 in 0 W/m2
06:29 52 °F 50.5 °F 30 in WSW 8.1 mph 13 mph 95% 0.02 in 0 W/m2
06:34 52 °F 50.5 °F 30 in West 8.1 mph 12 mph 95% 0.02 in 0 W/m2
06:39 51.8 °F 50.4 °F 30 in WNW 8.1 mph 13 mph 95% 0.04 in 0 W/m2
06:44 51.8 °F 50.4 °F 30 in WNW 4.9 mph 8 mph 95% 0.04 in 0 W/m2
06:49 51.6 °F 50.2 °F 30 in WNW 6.9 mph 10 mph 95% 0.04 in 0 W/m2
06:54 51.6 °F 50.2 °F 30 in WSW 8.9 mph 11 mph 95% 0.03 in 0 W/m2
06:59 51.6 °F 50.2 °F 30 in WNW 8.1 mph 11 mph 95% 0.03 in 0 W/m2
07:04 51.6 °F 50 °F 30 in SW 6.9 mph 11 mph 94% 0.03 in 0 W/m2
07:09 51.6 °F 50.2 °F 30 in SW 4.9 mph 10 mph 95% 0.03 in 0 W/m2
07:14 51.6 °F 50.2 °F 30 in West 6.9 mph 11 mph 95% 0.03 in 0 W/m2
07:19 51.4 °F 50 °F 30 in NW 8.9 mph 11 mph 95% 0.03 in 0 W/m2
07:24 51.4 °F 50 °F 30 in WNW 6 mph 9 mph 95% 0.03 in 0 W/m2
07:29 51.4 °F 50 °F 30 in WSW 6.9 mph 9 mph 95% 0.03 in 0 W/m2
07:34 51.4 °F 50 °F 30 in West 6.9 mph 9 mph 95% 0.02 in 0 W/m2
07:39 51.4 °F 50 °F 30 in West 6 mph 12 mph 95% 0.01 in 0 W/m2
07:44 51.4 °F 50 °F 30 in West 6.9 mph 8 mph 95% 0.02 in 0 W/m2
07:49 51.4 °F 50 °F 30 in West 2 mph 13 mph 95% 0.02 in 0 W/m2
07:54 51.6 °F 50.2 °F 30 in NW 2.9 mph 9 mph 95% 0.02 in 0 W/m2
07:59 51.6 °F 50.2 °F 30 in WSW 4.9 mph 12 mph 95% 0.02 in 5 W/m2
08:04 51.6 °F 50.2 °F 30 in West 2.9 mph 6 mph 95% 0.02 in 7 W/m2
08:09 51.6 °F 50.2 °F 30 in WNW 2.9 mph 9 mph 95% 0.02 in 7 W/m2
08:14 51.6 °F 50.2 °F 30 in WNW 6 mph 11 mph 95% 0.02 in 9 W/m2
08:19 51.8 °F 50.4 °F 30 in WNW 4 mph 10 mph 95% 0.02 in 11 W/m2
08:24 52 °F 50.5 °F 30 in West 6.9 mph 7 mph 95% 0.02 in 9 W/m2
08:29 52 °F 50.5 °F 30 in WNW 2 mph 7 mph 95% 0.02 in 11 W/m2
08:34 52 °F 50.5 °F 30 in West 4 mph 7 mph 95% 0.02 in 12 W/m2
08:39 52.2 °F 50.7 °F 30 in WSW 2.9 mph 8 mph 95% 0.02 in 16 W/m2
08:44 52.2 °F 50.7 °F 30 in WSW 2.9 mph 6 mph 95% 0.01 in 14 W/m2
08:49 52.2 °F 50.7 °F 30 in SW 0.9 mph 2 mph 95% 0 in 14 W/m2
08:54 52.2 °F 50.7 °F 30 in NW 2 mph 4 mph 95% 0 in 16 W/m2
08:59 52.2 °F 50.7 °F 30 in WSW 0.9 mph 5 mph 95% 0 in 16 W/m2
09:04 52.3 °F 50.9 °F 30 in Calm     95% 0 in 16 W/m2
09:09 52.3 °F 50.9 °F 30 in Calm   5 mph 95% 0 in 18 W/m2
09:14 52.3 °F 50.9 °F 30 in Calm   3 mph 95% 0 in 21 W/m2
09:19 52.3 °F 50.9 °F 30 in Calm     95% 0 in 19 W/m2
09:24 52.3 °F 50.9 °F 30 in West 0.9 mph 2 mph 95% 0 in 18 W/m2
09:29 52.3 °F 50.9 °F 30 in Calm   3 mph 95% 0 in 19 W/m2
09:34 52.3 °F 50.9 °F 30 in Calm   1 mph 95% 0 in 19 W/m2
09:39 52.5 °F 51.1 °F 30 in Calm   1 mph 95% 0 in 21 W/m2
09:44 52.5 °F 51.1 °F 30 in Calm     95% 0 in 26 W/m2
09:49 52.5 °F 51.1 °F 30 in Calm     95% 0 in 30 W/m2
09:54 52.5 °F 51.1 °F 30 in NNW 2.9 mph 3 mph 95% 0 in 28 W/m2
09:59 52.7 °F 51.3 °F 30 in Calm   3 mph 95% 0 in 35 W/m2
10:04 52.7 °F 51.3 °F 30 in WNW 0.9 mph 3 mph 95% 0 in 39 W/m2
10:09 52.9 °F 51.4 °F 30 in Calm   2 mph 95% 0 in 35 W/m2
10:14 52.9 °F 51.4 °F 30 in West 2 mph 4 mph 95% 0 in 33 W/m2
10:19 52.9 °F 51.3 °F 30 in Calm   6 mph 94% 0 in 30 W/m2
10:24 52.9 °F 51.3 °F 30 in SW 0.9 mph 2 mph 94% 0 in 32 W/m2
10:29 52.9 °F 51.3 °F 30 in SW 0.9 mph 5 mph 94% 0 in 39 W/m2
10:34 53.1 °F 51.6 °F 30 in Calm   2 mph 95% 0 in 47 W/m2
10:39 53.1 °F 51.6 °F 30 in SW 0.9 mph 1 mph 95% 0 in 69 W/m2
10:44 53.2 °F 51.8 °F 30 in Calm     95% 0 in 84 W/m2
10:49 53.2 °F 51.8 °F 30 in WNW 2.9 mph 3 mph 95% 0 in 88 W/m2
10:54 53.2 °F 51.8 °F 30 in Calm   1 mph 95% 0 in 76 W/m2
10:59 53.4 °F 52 °F 30 in Calm     95% 0 in 72 W/m2
11:04 53.8 °F 52.3 °F 30 in Calm     95% 0 in 84 W/m2
11:09 53.8 °F 52.3 °F 30 in WNW 0.9 mph 4 mph 95% 0 in 91 W/m2
11:14 53.8 °F 52.2 °F 30 in WNW 4 mph 4 mph 94% 0 in 93 W/m2
11:19 54 °F 52.3 °F 30 in Calm   3 mph 94% 0 in 109 W/m2
11:24 54.1 °F 52.5 °F 30 in West 2 mph 3 mph 94% 0 in 107 W/m2
11:29 54.3 °F 52.7 °F 30 in Calm   1 mph 94% 0 in 130 W/m2
11:34 54.5 °F 52.9 °F 30 in West 0.9 mph 2 mph 94% 0 in 156 W/m2
11:39 54.7 °F 53.1 °F 30 in Calm   2 mph 94% 0 in 172 W/m2
11:44 54.9 °F 53.2 °F 30 in WNW 0.9 mph 3 mph 94% 0 in 186 W/m2
11:49 55.2 °F 53.2 °F 30 in WNW 2 mph 2 mph 93% 0 in 190 W/m2
11:54 55.4 °F 53.4 °F 30.1 in South 0.9 mph 2 mph 93% 0 in 142 W/m2
11:59 55.8 °F 53.8 °F 30.1 in Calm   2 mph 93% 0 in 111 W/m2
12:04 55.8 °F 53.4 °F 30 in West 0.9 mph 4 mph 92% 0 in 98 W/m2
12:09 55.8 °F 53.4 °F 30.1 in Calm   1 mph 92% 0 in 90 W/m2
12:14 55.9 °F 53.6 °F 30 in WNW 0.9 mph 3 mph 92% 0 in 88 W/m2
12:19 55.9 °F 53.6 °F 30.1 in West 0.9 mph 3 mph 92% 0 in 98 W/m2
12:24 55.9 °F 53.6 °F 30 in SW 0.9 mph 2 mph 92% 0 in 105 W/m2
12:29 55.9 °F 53.6 °F 30 in WNW 0.9 mph 1 mph 92% 0 in 116 W/m2
12:34 55.9 °F 53.4 °F 30 in West 4 mph 5 mph 91% 0 in 125 W/m2
12:39 55.9 °F 53.4 °F 30.1 in NW 4 mph 4 mph 91% 0 in 151 W/m2
12:44 56.1 °F 53.8 °F 30 in WNW 2.9 mph 5 mph 92% 0 in 178 W/m2
12:53 56.5 °F 54.1 °F 30.1 in West 2 mph 4 mph 92% 0 in 250 W/m2
12:58 56.7 °F 54.3 °F 30.1 in SSW 2.9 mph 4 mph 92% 0 in 223 W/m2
13:03 57 °F 54.5 °F 30.1 in WNW 0.9 mph 5 mph 91% 0 in 230 W/m2
13:08 57.2 °F 54.7 °F 30.1 in NW 2.9 mph 8 mph 91% 0 in 251 W/m2
13:13 57.6 °F 55 °F 30.1 in WNW 2 mph 3 mph 91% 0 in 278 W/m2
13:18 57.6 °F 54.3 °F 30.1 in WNW 2 mph 8 mph 89% 0 in 290 W/m2
13:23 57.7 °F 54.9 °F 30.1 in WNW 4.9 mph 8 mph 90% 0 in 341 W/m2
13:28 57.9 °F 54.7 °F 30.1 in WNW 2.9 mph 7 mph 89% 0 in 322 W/m2
13:33 58.3 °F 55 °F 30.1 in SW 2 mph 7 mph 89% 0 in 367 W/m2
13:38 58.6 °F 55 °F 30.1 in NW 2.9 mph 8 mph 88% 0 in 390 W/m2
13:43 59.2 °F 55.9 °F 30.1 in WNW 4 mph 5 mph 89% 0 in 610 W/m2
13:48 59.4 °F 55.2 °F 30.1 in WNW 6.9 mph 7 mph 86% 0 in 299 W/m2
13:53 59.4 °F 55.2 °F 30 in West 2.9 mph 6 mph 86% 0 in 260 W/m2
13:58 59.4 °F 55.2 °F 30.1 in West 2.9 mph 7 mph 86% 0 in 190 W/m2
14:03 59.5 °F 55.6 °F 30.1 in West 2 mph 3 mph 87% 0 in 155 W/m2
14:08 59.4 °F 55.2 °F 30.1 in West 0.9 mph 4 mph 86% 0 in 292 W/m2
14:13 59.5 °F 55.4 °F 30 in NW 4 mph 5 mph 86% 0 in 258 W/m2
14:18 59.5 °F 55.4 °F 30 in WNW 0.9 mph 3 mph 86% 0 in 255 W/m2
14:23 59.9 °F 55.8 °F 30 in Calm   2 mph 86% 0 in 174 W/m2
14:28 60.1 °F 56.1 °F 30 in WNW 2 mph 3 mph 87% 0 in 97 W/m2
14:33 60.3 °F 56.1 °F 30 in NW 0.9 mph 2 mph 86% 0 in 118 W/m2
14:38 60.3 °F 56.1 °F 30 in West 0.9 mph 2 mph 86% 0 in 190 W/m2
14:43 60.3 °F 56.1 °F 30 in NW 0.9 mph 3 mph 86% 0 in 204 W/m2
14:48 60.3 °F 55.4 °F 30 in Calm   2 mph 84% 0 in 169 W/m2
14:53 60.3 °F 56.1 °F 30 in Calm   3 mph 86% 0 in 190 W/m2
14:58 60.4 °F 56.3 °F 30 in WSW 2.9 mph 4 mph 86% 0 in 183 W/m2
15:03 60.6 °F 56.1 °F 30 in WNW 2 mph 3 mph 85% 0 in 221 W/m2
15:08 60.6 °F 56.1 °F 30 in West 2 mph 5 mph 85% 0 in 134 W/m2
15:14 60.4 °F 55.6 °F 30 in West 2.9 mph 7 mph 84% 0 in 141 W/m2
15:19 60.3 °F 55.8 °F 30 in West 6.9 mph 7 mph 85% 0 in 165 W/m2
15:24 60.3 °F 56.1 °F 30 in West 2 mph 3 mph 86% 0 in 98 W/m2
15:29 60.1 °F 55.6 °F 30 in West 2.9 mph 3 mph 85% 0 in 79 W/m2
15:34 60.1 °F 55.9 °F 30 in West 2 mph 4 mph 86% 0 in 116 W/m2
15:39 60.1 °F 55.9 °F 30 in SW 2 mph 6 mph 86% 0 in 207 W/m2
15:44 60.3 °F 56.1 °F 30 in NNW 4.9 mph 5 mph 86% 0 in 255 W/m2
15:49 60.6 °F 56.5 °F 30 in NW 0.9 mph 4 mph 86% 0 in 230 W/m2
15:54 60.8 °F 56.3 °F 30 in WNW 0.9 mph 4 mph 85% 0 in 163 W/m2
15:59 61 °F 56.5 °F 30 in NW 4 mph 4 mph 85% 0 in 116 W/m2
16:04 61 °F 56.1 °F 30 in Calm   2 mph 84% 0 in 181 W/m2
16:09 61 °F 56.1 °F 30 in SSW 2.9 mph 6 mph 84% 0 in 167 W/m2
16:14 61 °F 56.1 °F 30 in Calm   4 mph 84% 0 in 132 W/m2
16:19 61 °F 56.1 °F 30 in West 4 mph 4 mph 84% 0 in 107 W/m2
16:24 60.8 °F 55.6 °F 30 in NW 2 mph 4 mph 83% 0 in 72 W/m2
16:29 60.8 °F 55.9 °F 30 in WNW 2.9 mph 3 mph 84% 0 in 60 W/m2
16:34 60.8 °F 56.3 °F 30 in West 0.9 mph 4 mph 85% 0 in 81 W/m2
16:39 60.6 °F 56.1 °F 30 in West 2 mph 5 mph 85% 0 in 93 W/m2
16:44 60.6 °F 56.1 °F 30 in West 4 mph 6 mph 85% 0 in 72 W/m2
16:49 60.6 °F 56.1 °F 30 in NNW 2.9 mph 3 mph 85% 0 in 86 W/m2
16:54 60.6 °F 56.5 °F 30 in SW 0.9 mph 2 mph 86% 0 in 113 W/m2
16:59 60.8 °F 56.3 °F 30 in Calm   1 mph 85% 0 in 135 W/m2
17:04 61 °F 56.5 °F 30 in NW 0.9 mph 3 mph 85% 0 in 114 W/m2
17:09 61.2 °F 56.7 °F 30 in NNW 0.9 mph 1 mph 85% 0 in 98 W/m2
17:19 61.2 °F 57 °F 30 in West 2.9 mph 4 mph 86% 0 in 113 W/m2
17:24 61.2 °F 56.7 °F 30 in WNW 2 mph 3 mph 85% 0 in 107 W/m2
17:29 61.2 °F 55.9 °F 30 in North 0.9 mph 4 mph 83% 0 in 93 W/m2
17:34 61 °F 56.1 °F 30 in WNW 0.9 mph 2 mph 84% 0 in 83 W/m2
17:39 61 °F 56.1 °F 30 in Calm   4 mph 84% 0 in 79 W/m2
17:44 61 °F 56.5 °F 30 in West 2.9 mph 7 mph 85% 0 in 81 W/m2
17:49 60.8 °F 56.3 °F 30 in West 2 mph 4 mph 85% 0 in 86 W/m2
17:54 61 °F 56.5 °F 30 in WNW 2 mph 3 mph 85% 0 in 69 W/m2
17:59 60.6 °F 56.1 °F 30 in West 2 mph 6 mph 85% 0 in 44 W/m2
18:04 60.6 °F 56.1 °F 30 in NW 2 mph 4 mph 85% 0 in 30 W/m2
18:09 60.4 °F 55.9 °F 30 in NNW 2 mph 3 mph 85% 0 in 26 W/m2
18:14 60.4 °F 56.3 °F 30 in NW 2 mph 4 mph 86% 0 in 21 W/m2
18:20 60.3 °F 56.1 °F 30 in Calm   3 mph 86% 0 in 19 W/m2
18:25 60.3 °F 56.1 °F 30 in West 6.9 mph 8 mph 86% 0 in 18 W/m2
18:30 59.9 °F 55.9 °F 30 in WNW 0.9 mph 2 mph 87% 0 in 18 W/m2
18:35 59.7 °F 56.1 °F 30 in WNW 2 mph 8 mph 88% 0 in 19 W/m2
18:40 59.5 °F 55.9 °F 30 in SW 2 mph 4 mph 88% 0 in 16 W/m2
18:45 59.4 °F 56.1 °F 30 in WNW 2.9 mph 3 mph 89% 0 in 16 W/m2
18:50 59.2 °F 55.9 °F 30 in West 0.9 mph 2 mph 89% 0 in 14 W/m2
18:55 59 °F 56.1 °F 30 in NW 0.9 mph 3 mph 90% 0 in 11 W/m2
19:00 58.8 °F 55.9 °F 30 in WSW 0.9 mph 2 mph 90% 0 in 9 W/m2
19:05 58.8 °F 55.9 °F 30 in WNW 0.9 mph 1 mph 90% 0 in 7 W/m2
19:10 58.8 °F 56.1 °F 30 in WNW 0.9 mph 4 mph 91% 0 in 5 W/m2
19:15 58.6 °F 55.9 °F 30 in NW 2 mph 4 mph 91% 0 in 0 W/m2
19:20 58.6 °F 55.9 °F 30 in NW 0.9 mph 1 mph 91% 0 in 0 W/m2
19:25 58.6 °F 55.9 °F 30 in Calm   4 mph 91% 0 in 0 W/m2
19:30 58.6 °F 55.9 °F 30 in NNW 2 mph 2 mph 91% 0 in 0 W/m2
19:35 58.6 °F 55.9 °F 30 in NW 2 mph 3 mph 91% 0 in 0 W/m2
19:40 58.6 °F 55.9 °F 30 in WNW 2.9 mph 4 mph 91% 0 in 0 W/m2
19:45 58.6 °F 55.9 °F 30 in NW 4 mph 4 mph 91% 0 in 0 W/m2
19:50 58.6 °F 55.9 °F 30 in WNW 2 mph 3 mph 91% 0 in 0 W/m2
19:55 58.6 °F 55.9 °F 30 in WNW 0.9 mph 4 mph 91% 0 in 0 W/m2
20:00 58.6 °F 55.9 °F 30 in WNW 2 mph 4 mph 91% 0 in 0 W/m2
20:05 58.6 °F 55.9 °F 30 in West 2 mph 6 mph 91% 0 in 0 W/m2
20:10 58.6 °F 55.9 °F 30 in WNW 2 mph 3 mph 91% 0 in 0 W/m2
20:15 58.6 °F 55.9 °F 30 in Calm   3 mph 91% 0 in 0 W/m2
20:20 58.6 °F 55.9 °F 30 in WNW 2 mph 2 mph 91% 0 in 0 W/m2
20:25 58.5 °F 55.8 °F 30 in West 0.9 mph 1 mph 91% 0 in 0 W/m2
20:30 58.5 °F 55.8 °F 30.1 in NW 2 mph 2 mph 91% 0 in 0 W/m2
20:35 58.5 °F 55.8 °F 30.1 in Calm   1 mph 91% 0 in 0 W/m2
20:40 58.5 °F 55.8 °F 30.1 in Calm     91% 0 in 0 W/m2
20:45 58.5 °F 55.8 °F 30.1 in Calm   1 mph 91% 0 in 0 W/m2
20:50 58.3 °F 55.9 °F 30.1 in Calm   1 mph 92% 0 in 0 W/m2
20:55 58.3 °F 55.9 °F 30.1 in Calm   1 mph 92% 0 in 0 W/m2
21:00 58.3 °F 55.9 °F 30.1 in Calm     92% 0 in 0 W/m2
21:05 58.1 °F 55.8 °F 30 in Calm     92% 0 in 0 W/m2
21:10 57.9 °F 55.6 °F 30 in Calm     92% 0 in 0 W/m2
21:15 57.9 °F 55.9 °F 30 in Calm     93% 0 in 0 W/m2
21:20 57.9 °F 55.9 °F 30.1 in Calm     93% 0 in 0 W/m2
21:25 57.7 °F 55.8 °F 30.1 in Calm     93% 0 in 0 W/m2
21:30 57.7 °F 55.8 °F 30.1 in North 0.9 mph 2 mph 93% 0 in 0 W/m2
21:35 57.7 °F 55.8 °F 30.1 in Calm   1 mph 93% 0 in 0 W/m2
21:41 57.7 °F 55.8 °F 30.1 in Calm     93% 0 in 0 W/m2
21:46 57.7 °F 55.8 °F 30.1 in North 0.9 mph 2 mph 93% 0 in 0 W/m2
21:51 57.7 °F 55.8 °F 30.1 in Calm   1 mph 93% 0 in 0 W/m2
21:56 57.7 °F 55.9 °F 30.1 in Calm     94% 0 in 0 W/m2
22:01 57.7 °F 55.9 °F 30.1 in Calm     94% 0 in 0 W/m2
22:06 57.7 °F 55.9 °F 30.1 in Calm   1 mph 94% 0 in 0 W/m2
22:11 57.7 °F 55.9 °F 30.1 in ENE 0.9 mph 2 mph 94% 0 in 0 W/m2
22:16 57.6 °F 55.8 °F 30.1 in Calm   2 mph 94% 0 in 0 W/m2
22:21 57.6 °F 55.8 °F 30.1 in Calm   1 mph 94% 0 in 0 W/m2
22:26 57.6 °F 55.8 °F 30.1 in Calm     94% 0 in 0 W/m2
22:31 57.6 °F 55.8 °F 30.1 in Calm     94% 0 in 0 W/m2
22:36 57.6 °F 55.8 °F 30.1 in SSW 0.9 mph 2 mph 94% 0 in 0 W/m2
22:41 57.4 °F 55.6 °F 30.1 in Calm   2 mph 94% 0 in 0 W/m2
22:46 57.4 °F 55.6 °F 30.1 in NW 2 mph 2 mph 94% 0 in 0 W/m2
22:51 57.4 °F 55.6 °F 30.1 in NE 0.9 mph 3 mph 94% 0 in 0 W/m2
22:56 57.4 °F 55.6 °F 30.1 in East 2.9 mph 3 mph 94% 0 in 0 W/m2
23:01 57.4 °F 55.6 °F 30.1 in East 0.9 mph 2 mph 94% 0 in 0 W/m2
23:06 57.4 °F 55.6 °F 30.1 in Calm   1 mph 94% 0 in 0 W/m2
23:11 57.4 °F 55.6 °F 30.1 in Calm   1 mph 94% 0 in 0 W/m2
23:16 57.4 °F 55.6 °F 30.1 in Calm   2 mph 94% 0 in 0 W/m2
23:21 57.4 °F 55.6 °F 30.1 in Calm   1 mph 94% 0 in 0 W/m2
23:26 57.4 °F 55.6 °F 30 in ESE 0.9 mph 2 mph 94% 0 in 0 W/m2
23:31 57.4 °F 55.6 °F 30 in Calm   2 mph 94% 0 in 0 W/m2
23:36 57.4 °F 55.6 °F 30 in NE 0.9 mph 2 mph 94% 0 in 0 W/m2
23:41 57.4 °F 55.6 °F 30 in Calm   2 mph 94% 0 in 0 W/m2
23:46 57.4 °F 55.6 °F 30 in North 0.9 mph 1 mph 94% 0 in 0 W/m2
23:51 57.6 °F 55.8 °F 30 in Calm   1 mph 94% 0 in 0 W/m2
23:56 57.4 °F 55.6 °F 30 in Calm     94% 0 in 0 W/m2
Juneau County Weather
Compliments of Weather Underground - 4 mb